sensor_id;sensor_type;location;lat;lon;timestamp;temperature;humidity
6792;DHT22;3433;48.730;9.108;2023-03-01T00:01:10;0.80;90.90
6792;DHT22;3433;48.730;9.108;2023-03-01T00:03:58;0.80;91.00
6792;DHT22;3433;48.730;9.108;2023-03-01T00:06:47;0.80;91.00
6792;DHT22;3433;48.730;9.108;2023-03-01T00:09:36;0.70;91.00
6792;DHT22;3433;48.730;9.108;2023-03-01T00:12:24;0.70;91.00
6792;DHT22;3433;48.730;9.108;2023-03-01T00:15:11;0.70;91.10
6792;DHT22;3433;48.730;9.108;2023-03-01T00:17:58;0.70;91.10
6792;DHT22;3433;48.730;9.108;2023-03-01T00:20:50;0.70;91.00
6792;DHT22;3433;48.730;9.108;2023-03-01T00:23:40;0.70;91.10
6792;DHT22;3433;48.730;9.108;2023-03-01T00:26:27;0.70;90.90
6792;DHT22;3433;48.730;9.108;2023-03-01T00:29:14;0.70;91.00
6792;DHT22;3433;48.730;9.108;2023-03-01T00:32:02;0.60;91.00
6792;DHT22;3433;48.730;9.108;2023-03-01T00:34:49;0.60;90.90
6792;DHT22;3433;48.730;9.108;2023-03-01T00:37:40;0.60;91.00
6792;DHT22;3433;48.730;9.108;2023-03-01T00:40:32;0.60;91.00
6792;DHT22;3433;48.730;9.108;2023-03-01T00:43:19;0.60;91.00
6792;DHT22;3433;48.730;9.108;2023-03-01T00:46:08;0.60;91.10
6792;DHT22;3433;48.730;9.108;2023-03-01T00:48:56;0.60;91.00
6792;DHT22;3433;48.730;9.108;2023-03-01T00:51:43;0.50;91.10
6792;DHT22;3433;48.730;9.108;2023-03-01T00:54:31;0.50;91.00
6792;DHT22;3433;48.730;9.108;2023-03-01T00:57:19;0.50;91.10
6792;DHT22;3433;48.730;9.108;2023-03-01T01:00:08;0.50;91.00
6792;DHT22;3433;48.730;9.108;2023-03-01T01:02:57;0.50;91.00
6792;DHT22;3433;48.730;9.108;2023-03-01T01:05:44;0.40;91.10
6792;DHT22;3433;48.730;9.108;2023-03-01T01:08:31;0.40;91.00
6792;DHT22;3433;48.730;9.108;2023-03-01T01:11:20;0.40;91.10
6792;DHT22;3433;48.730;9.108;2023-03-01T01:14:09;0.40;91.20
6792;DHT22;3433;48.730;9.108;2023-03-01T01:16:57;0.40;91.20
6792;DHT22;3433;48.730;9.108;2023-03-01T01:19:44;0.30;91.10
6792;DHT22;3433;48.730;9.108;2023-03-01T01:22:31;0.30;91.20
6792;DHT22;3433;48.730;9.108;2023-03-01T01:25:19;0.30;91.20
6792;DHT22;3433;48.730;9.108;2023-03-01T01:28:06;0.30;91.10
6792;DHT22;3433;48.730;9.108;2023-03-01T01:30:55;0.30;91.10
6792;DHT22;3433;48.730;9.108;2023-03-01T01:33:42;0.20;91.20
6792;DHT22;3433;48.730;9.108;2023-03-01T01:36:31;0.20;91.30
6792;DHT22;3433;48.730;9.108;2023-03-01T01:39:18;0.20;91.30
6792;DHT22;3433;48.730;9.108;2023-03-01T01:42:05;0.20;91.30
6792;DHT22;3433;48.730;9.108;2023-03-01T01:45:27;0.20;91.30
6792;DHT22;3433;48.730;9.108;2023-03-01T01:48:20;0.20;91.30
6792;DHT22;3433;48.730;9.108;2023-03-01T01:51:13;0.10;91.30
6792;DHT22;3433;48.730;9.108;2023-03-01T01:54:01;0.10;91.30
6792;DHT22;3433;48.730;9.108;2023-03-01T01:56:50;0.10;91.30
6792;DHT22;3433;48.730;9.108;2023-03-01T01:59:40;0.10;91.40
6792;DHT22;3433;48.730;9.108;2023-03-01T02:02:28;0.10;91.40
6792;DHT22;3433;48.730;9.108;2023-03-01T02:05:24;0.20;91.60
6792;DHT22;3433;48.730;9.108;2023-03-01T02:08:13;0.10;91.60
6792;DHT22;3433;48.730;9.108;2023-03-01T02:11:01;0.20;91.80
6792;DHT22;3433;48.730;9.108;2023-03-01T02:13:50;0.20;91.90
6792;DHT22;3433;48.730;9.108;2023-03-01T02:16:37;0.20;91.90
6792;DHT22;3433;48.730;9.108;2023-03-01T02:19:33;0.30;92.00
6792;DHT22;3433;48.730;9.108;2023-03-01T02:22:25;0.30;92.10
6792;DHT22;3433;48.730;9.108;2023-03-01T02:25:34;0.30;92.10
6792;DHT22;3433;48.730;9.108;2023-03-01T02:28:30;0.30;92.20
6792;DHT22;3433;48.730;9.108;2023-03-01T02:31:18;0.40;92.40
6792;DHT22;3433;48.730;9.108;2023-03-01T02:34:25;0.50;92.50
6792;DHT22;3433;48.730;9.108;2023-03-01T02:37:15;0.50;92.50
6792;DHT22;3433;48.730;9.108;2023-03-01T02:40:08;0.50;92.60
6792;DHT22;3433;48.730;9.108;2023-03-01T02:42:58;0.60;92.60
6792;DHT22;3433;48.730;9.108;2023-03-01T02:45:50;0.60;92.70
6792;DHT22;3433;48.730;9.108;2023-03-01T02:48:42;0.70;92.80
6792;DHT22;3433;48.730;9.108;2023-03-01T02:51:42;0.80;93.10
6792;DHT22;3433;48.730;9.108;2023-03-01T02:54:38;0.80;92.80
6792;DHT22;3433;48.730;9.108;2023-03-01T02:57:29;0.80;92.80
6792;DHT22;3433;48.730;9.108;2023-03-01T03:00:19;0.90;92.80
6792;DHT22;3433;48.730;9.108;2023-03-01T03:03:10;1.00;92.90
6792;DHT22;3433;48.730;9.108;2023-03-01T03:05:59;1.00;93.40
6792;DHT22;3433;48.730;9.108;2023-03-01T03:08:47;1.00;93.30
6792;DHT22;3433;48.730;9.108;2023-03-01T03:11:34;1.00;93.20
6792;DHT22;3433;48.730;9.108;2023-03-01T03:14:22;1.20;93.20
6792;DHT22;3433;48.730;9.108;2023-03-01T03:17:09;1.20;93.20
6792;DHT22;3433;48.730;9.108;2023-03-01T03:19:58;1.20;93.10
6792;DHT22;3433;48.730;9.108;2023-03-01T03:22:49;1.30;93.20
6792;DHT22;3433;48.730;9.108;2023-03-01T03:25:36;1.30;93.10
6792;DHT22;3433;48.730;9.108;2023-03-01T03:28:24;1.30;93.10
6792;DHT22;3433;48.730;9.108;2023-03-01T03:31:11;1.30;93.20
6792;DHT22;3433;48.730;9.108;2023-03-01T03:33:58;1.30;93.50
6792;DHT22;3433;48.730;9.108;2023-03-01T03:36:47;1.40;93.30
6792;DHT22;3433;48.730;9.108;2023-03-01T03:39:34;1.40;93.30
6792;DHT22;3433;48.730;9.108;2023-03-01T03:42:21;1.40;93.60
6792;DHT22;3433;48.730;9.108;2023-03-01T03:45:09;1.40;93.40
6792;DHT22;3433;48.730;9.108;2023-03-01T03:47:56;1.50;93.20
6792;DHT22;3433;48.730;9.108;2023-03-01T03:50:48;1.50;93.30
6792;DHT22;3433;48.730;9.108;2023-03-01T03:53:37;1.50;93.50
6792;DHT22;3433;48.730;9.108;2023-03-01T03:56:24;1.50;93.40
6792;DHT22;3433;48.730;9.108;2023-03-01T03:59:12;1.50;93.30
6792;DHT22;3433;48.730;9.108;2023-03-01T04:01:59;1.50;93.40
6792;DHT22;3433;48.730;9.108;2023-03-01T04:04:46;1.50;93.30
6792;DHT22;3433;48.730;9.108;2023-03-01T04:07:35;1.60;93.40
6792;DHT22;3433;48.730;9.108;2023-03-01T04:10:25;1.60;93.40
6792;DHT22;3433;48.730;9.108;2023-03-01T04:13:13;1.60;93.40
6792;DHT22;3433;48.730;9.108;2023-03-01T04:16:01;1.60;93.30
6792;DHT22;3433;48.730;9.108;2023-03-01T04:18:48;1.60;93.60
6792;DHT22;3433;48.730;9.108;2023-03-01T04:21:35;1.60;93.40
6792;DHT22;3433;48.730;9.108;2023-03-01T04:24:23;1.60;93.40
6792;DHT22;3433;48.730;9.108;2023-03-01T04:27:11;1.70;93.60
6792;DHT22;3433;48.730;9.108;2023-03-01T04:29:59;1.70;93.50
6792;DHT22;3433;48.730;9.108;2023-03-01T04:32:46;1.60;93.50
6792;DHT22;3433;48.730;9.108;2023-03-01T04:35:34;1.60;93.60
6792;DHT22;3433;48.730;9.108;2023-03-01T04:38:23;1.70;93.50
6792;DHT22;3433;48.730;9.108;2023-03-01T04:41:11;1.70;93.70
6792;DHT22;3433;48.730;9.108;2023-03-01T04:44:00;1.70;93.40
6792;DHT22;3433;48.730;9.108;2023-03-01T04:46:48;1.70;93.40
6792;DHT22;3433;48.730;9.108;2023-03-01T04:49:36;1.80;93.60
6792;DHT22;3433;48.730;9.108;2023-03-01T04:52:23;1.70;93.70
6792;DHT22;3433;48.730;9.108;2023-03-01T04:55:11;1.70;93.60
6792;DHT22;3433;48.730;9.108;2023-03-01T04:57:58;1.80;93.70
6792;DHT22;3433;48.730;9.108;2023-03-01T05:00:49;1.80;93.70
6792;DHT22;3433;48.730;9.108;2023-03-01T05:03:37;1.70;93.60
6792;DHT22;3433;48.730;9.108;2023-03-01T05:06:24;1.70;93.80
6792;DHT22;3433;48.730;9.108;2023-03-01T05:09:11;1.70;93.80
6792;DHT22;3433;48.730;9.108;2023-03-01T05:11:58;1.70;94.30
6792;DHT22;3433;48.730;9.108;2023-03-01T05:14:46;1.70;93.70
6792;DHT22;3433;48.730;9.108;2023-03-01T05:17:34;1.70;94.20
6792;DHT22;3433;48.730;9.108;2023-03-01T05:20:22;1.80;93.90
6792;DHT22;3433;48.730;9.108;2023-03-01T05:23:11;1.80;93.70
6792;DHT22;3433;48.730;9.108;2023-03-01T05:25:58;1.80;93.80
6792;DHT22;3433;48.730;9.108;2023-03-01T05:28:45;1.90;93.80
6792;DHT22;3433;48.730;9.108;2023-03-01T05:31:33;1.90;94.00
6792;DHT22;3433;48.730;9.108;2023-03-01T05:34:24;1.90;93.90
6792;DHT22;3433;48.730;9.108;2023-03-01T05:37:11;1.90;94.00
6792;DHT22;3433;48.730;9.108;2023-03-01T05:39:59;1.90;94.10
6792;DHT22;3433;48.730;9.108;2023-03-01T05:42:48;2.00;94.30
6792;DHT22;3433;48.730;9.108;2023-03-01T05:45:36;1.90;94.40
6792;DHT22;3433;48.730;9.108;2023-03-01T05:48:24;2.00;94.40
6792;DHT22;3433;48.730;9.108;2023-03-01T05:51:13;2.00;94.40
6792;DHT22;3433;48.730;9.108;2023-03-01T05:54:00;2.00;94.10
6792;DHT22;3433;48.730;9.108;2023-03-01T05:56:47;1.90;94.20
6792;DHT22;3433;48.730;9.108;2023-03-01T05:59:34;1.90;94.10
6792;DHT22;3433;48.730;9.108;2023-03-01T06:02:22;1.90;94.30
6792;DHT22;3433;48.730;9.108;2023-03-01T06:05:11;1.90;94.40
6792;DHT22;3433;48.730;9.108;2023-03-01T06:08:01;1.90;94.20
6792;DHT22;3433;48.730;9.108;2023-03-01T06:10:48;1.90;94.40
6792;DHT22;3433;48.730;9.108;2023-03-01T06:13:35;1.90;94.30
6792;DHT22;3433;48.730;9.108;2023-03-01T06:16:22;2.00;94.30
6792;DHT22;3433;48.730;9.108;2023-03-01T06:19:10;2.00;94.20
6792;DHT22;3433;48.730;9.108;2023-03-01T06:21:57;2.00;94.20
6792;DHT22;3433;48.730;9.108;2023-03-01T06:24:45;2.00;94.20
6792;DHT22;3433;48.730;9.108;2023-03-01T06:27:32;2.10;94.20
6792;DHT22;3433;48.730;9.108;2023-03-01T06:30:21;2.10;94.20
6792;DHT22;3433;48.730;9.108;2023-03-01T06:33:08;2.10;94.10
6792;DHT22;3433;48.730;9.108;2023-03-01T06:35:56;2.20;94.30
6792;DHT22;3433;48.730;9.108;2023-03-01T06:38:43;2.20;94.30
6792;DHT22;3433;48.730;9.108;2023-03-01T06:41:32;2.20;94.30
6792;DHT22;3433;48.730;9.108;2023-03-01T06:44:20;2.20;94.20
6792;DHT22;3433;48.730;9.108;2023-03-01T06:47:07;2.20;94.40
6792;DHT22;3433;48.730;9.108;2023-03-01T06:49:54;2.20;94.20
6792;DHT22;3433;48.730;9.108;2023-03-01T06:52:41;2.20;95.20
6792;DHT22;3433;48.730;9.108;2023-03-01T06:55:30;2.30;94.80
6792;DHT22;3433;48.730;9.108;2023-03-01T06:58:19;2.30;94.70
6792;DHT22;3433;48.730;9.108;2023-03-01T07:01:06;2.30;94.90
6792;DHT22;3433;48.730;9.108;2023-03-01T07:03:54;2.30;95.00
6792;DHT22;3433;48.730;9.108;2023-03-01T07:06:41;2.40;94.80
6792;DHT22;3433;48.730;9.108;2023-03-01T07:09:28;2.40;94.90
6792;DHT22;3433;48.730;9.108;2023-03-01T07:12:16;2.50;95.10
6792;DHT22;3433;48.730;9.108;2023-03-01T07:15:05;2.50;94.80
6792;DHT22;3433;48.730;9.108;2023-03-01T07:17:56;2.50;94.60
6792;DHT22;3433;48.730;9.108;2023-03-01T07:20:43;2.50;94.80
6792;DHT22;3433;48.730;9.108;2023-03-01T07:23:31;2.60;94.90
6792;DHT22;3433;48.730;9.108;2023-03-01T07:26:18;2.60;94.90
6792;DHT22;3433;48.730;9.108;2023-03-01T07:29:07;2.60;95.00
6792;DHT22;3433;48.730;9.108;2023-03-01T07:31:55;2.60;94.90
6792;DHT22;3433;48.730;9.108;2023-03-01T07:34:42;2.70;94.90
6792;DHT22;3433;48.730;9.108;2023-03-01T07:37:30;2.70;94.80
6792;DHT22;3433;48.730;9.108;2023-03-01T07:40:17;2.80;95.00
6792;DHT22;3433;48.730;9.108;2023-03-01T07:43:04;2.70;95.00
6792;DHT22;3433;48.730;9.108;2023-03-01T07:45:51;2.70;95.10
6792;DHT22;3433;48.730;9.108;2023-03-01T07:48:40;2.70;95.10
6792;DHT22;3433;48.730;9.108;2023-03-01T07:51:27;2.90;95.00
6792;DHT22;3433;48.730;9.108;2023-03-01T07:54:15;2.90;94.90
6792;DHT22;3433;48.730;9.108;2023-03-01T07:57:02;3.00;94.90
6792;DHT22;3433;48.730;9.108;2023-03-01T07:59:49;3.10;95.00
6792;DHT22;3433;48.730;9.108;2023-03-01T08:02:36;3.10;95.00
6792;DHT22;3433;48.730;9.108;2023-03-01T08:05:25;3.30;95.00
6792;DHT22;3433;48.730;9.108;2023-03-01T08:08:12;3.30;95.10
6792;DHT22;3433;48.730;9.108;2023-03-01T08:11:00;3.50;95.00
6792;DHT22;3433;48.730;9.108;2023-03-01T08:13:48;3.50;95.10
6792;DHT22;3433;48.730;9.108;2023-03-01T08:16:36;3.60;95.00
6792;DHT22;3433;48.730;9.108;2023-03-01T08:19:23;3.80;95.10
6792;DHT22;3433;48.730;9.108;2023-03-01T08:22:12;3.90;94.90
6792;DHT22;3433;48.730;9.108;2023-03-01T08:24:59;4.00;94.80
6792;DHT22;3433;48.730;9.108;2023-03-01T08:27:46;4.10;94.80
6792;DHT22;3433;48.730;9.108;2023-03-01T08:30:34;4.20;94.80
6792;DHT22;3433;48.730;9.108;2023-03-01T08:33:22;4.20;94.60
6792;DHT22;3433;48.730;9.108;2023-03-01T08:36:09;4.30;94.60
6792;DHT22;3433;48.730;9.108;2023-03-01T08:38:58;4.40;94.50
6792;DHT22;3433;48.730;9.108;2023-03-01T08:41:46;4.50;94.80
6792;DHT22;3433;48.730;9.108;2023-03-01T08:44:33;4.50;94.60
6792;DHT22;3433;48.730;9.108;2023-03-01T08:47:20;4.60;94.50
6792;DHT22;3433;48.730;9.108;2023-03-01T08:50:09;4.60;94.20
6792;DHT22;3433;48.730;9.108;2023-03-01T08:52:56;4.80;94.50
6792;DHT22;3433;48.730;9.108;2023-03-01T08:55:45;4.80;94.30
6792;DHT22;3433;48.730;9.108;2023-03-01T08:58:32;4.90;94.60
6792;DHT22;3433;48.730;9.108;2023-03-01T09:01:19;5.00;94.60
6792;DHT22;3433;48.730;9.108;2023-03-01T09:04:06;5.10;94.60
6792;DHT22;3433;48.730;9.108;2023-03-01T09:06:53;5.20;94.60
6792;DHT22;3433;48.730;9.108;2023-03-01T09:09:41;5.30;94.30
6792;DHT22;3433;48.730;9.108;2023-03-01T09:12:29;5.40;93.80
6792;DHT22;3433;48.730;9.108;2023-03-01T09:15:16;5.40;94.40
6792;DHT22;3433;48.730;9.108;2023-03-01T09:18:04;5.50;94.60
6792;DHT22;3433;48.730;9.108;2023-03-01T09:20:51;5.60;94.50
6792;DHT22;3433;48.730;9.108;2023-03-01T09:23:42;5.60;94.60
6792;DHT22;3433;48.730;9.108;2023-03-01T09:26:29;5.80;94.10
6792;DHT22;3433;48.730;9.108;2023-03-01T09:29:18;5.90;93.60
6792;DHT22;3433;48.730;9.108;2023-03-01T09:32:05;6.00;93.80
6792;DHT22;3433;48.730;9.108;2023-03-01T09:34:53;6.20;93.80
6792;DHT22;3433;48.730;9.108;2023-03-01T09:37:51;6.20;93.80
6792;DHT22;3433;48.730;9.108;2023-03-01T09:40:42;6.30;93.60
6792;DHT22;3433;48.730;9.108;2023-03-01T09:43:38;6.40;94.20
6792;DHT22;3433;48.730;9.108;2023-03-01T09:46:32;6.70;94.10
6792;DHT22;3433;48.730;9.108;2023-03-01T09:49:24;6.90;93.60
6792;DHT22;3433;48.730;9.108;2023-03-01T09:52:19;7.00;93.70
6792;DHT22;3433;48.730;9.108;2023-03-01T09:55:11;7.10;93.20
6792;DHT22;3433;48.730;9.108;2023-03-01T09:58:04;7.10;93.30
6792;DHT22;3433;48.730;9.108;2023-03-01T10:00:56;7.20;93.10
6792;DHT22;3433;48.730;9.108;2023-03-01T10:04:00;7.50;93.30
6792;DHT22;3433;48.730;9.108;2023-03-01T10:06:56;7.60;93.20
6792;DHT22;3433;48.730;9.108;2023-03-01T10:09:45;7.80;92.90
6792;DHT22;3433;48.730;9.108;2023-03-01T10:12:35;7.90;92.90
6792;DHT22;3433;48.730;9.108;2023-03-01T10:15:32;8.00;92.20
6792;DHT22;3433;48.730;9.108;2023-03-01T10:18:22;7.90;91.60
6792;DHT22;3433;48.730;9.108;2023-03-01T10:21:16;8.20;92.50
6792;DHT22;3433;48.730;9.108;2023-03-01T10:24:10;8.00;91.30
6792;DHT22;3433;48.730;9.108;2023-03-01T10:27:02;8.10;91.80
6792;DHT22;3433;48.730;9.108;2023-03-01T10:29:58;8.40;92.50
6792;DHT22;3433;48.730;9.108;2023-03-01T10:32:52;8.60;92.60
6792;DHT22;3433;48.730;9.108;2023-03-01T10:35:40;8.80;91.80
6792;DHT22;3433;48.730;9.108;2023-03-01T10:38:31;8.70;91.20
6792;DHT22;3433;48.730;9.108;2023-03-01T10:41:18;8.80;91.90
6792;DHT22;3433;48.730;9.108;2023-03-01T10:44:09;9.00;92.00
6792;DHT22;3433;48.730;9.108;2023-03-01T10:47:00;9.30;91.80
6792;DHT22;3433;48.730;9.108;2023-03-01T10:49:57;9.40;91.80
6792;DHT22;3433;48.730;9.108;2023-03-01T10:52:57;9.60;91.20
6792;DHT22;3433;48.730;9.108;2023-03-01T10:55:47;9.70;90.90
6792;DHT22;3433;48.730;9.108;2023-03-01T10:58:35;9.90;91.50
6792;DHT22;3433;48.730;9.108;2023-03-01T11:01:28;10.00;91.00
6792;DHT22;3433;48.730;9.108;2023-03-01T11:04:17;10.00;90.80
6792;DHT22;3433;48.730;9.108;2023-03-01T11:07:04;10.30;90.70
6792;DHT22;3433;48.730;9.108;2023-03-01T11:09:52;10.40;90.60
6792;DHT22;3433;48.730;9.108;2023-03-01T11:12:41;10.50;88.00
6792;DHT22;3433;48.730;9.108;2023-03-01T11:15:28;10.50;90.20
6792;DHT22;3433;48.730;9.108;2023-03-01T11:18:20;10.60;89.30
6792;DHT22;3433;48.730;9.108;2023-03-01T11:21:09;10.50;90.20
6792;DHT22;3433;48.730;9.108;2023-03-01T11:23:59;10.70;87.90
6792;DHT22;3433;48.730;9.108;2023-03-01T11:26:54;10.80;89.70
6792;DHT22;3433;48.730;9.108;2023-03-01T11:29:44;10.80;88.00
6792;DHT22;3433;48.730;9.108;2023-03-01T11:32:41;10.80;89.10
6792;DHT22;3433;48.730;9.108;2023-03-01T11:35:30;11.00;88.00
6792;DHT22;3433;48.730;9.108;2023-03-01T11:38:22;10.90;86.00
6792;DHT22;3433;48.730;9.108;2023-03-01T11:41:14;11.00;88.00
6792;DHT22;3433;48.730;9.108;2023-03-01T11:44:05;11.00;87.90
6792;DHT22;3433;48.730;9.108;2023-03-01T11:47:12;11.00;88.80
6792;DHT22;3433;48.730;9.108;2023-03-01T11:50:16;11.10;83.30
6792;DHT22;3433;48.730;9.108;2023-03-01T11:53:28;10.40;85.10
6792;DHT22;3433;48.730;9.108;2023-03-01T11:56:26;10.90;87.10
6792;DHT22;3433;48.730;9.108;2023-03-01T11:59:43;10.70;81.40
6792;DHT22;3433;48.730;9.108;2023-03-01T12:03:08;10.50;85.60
6792;DHT22;3433;48.730;9.108;2023-03-01T12:06:17;11.00;86.50
6792;DHT22;3433;48.730;9.108;2023-03-01T12:09:23;11.30;87.60
6792;DHT22;3433;48.730;9.108;2023-03-01T12:12:27;11.50;86.70
6792;DHT22;3433;48.730;9.108;2023-03-01T12:15:39;11.70;86.60
6792;DHT22;3433;48.730;9.108;2023-03-01T12:18:54;11.80;85.80
6792;DHT22;3433;48.730;9.108;2023-03-01T12:22:09;11.60;85.30
6792;DHT22;3433;48.730;9.108;2023-03-01T12:25:16;12.00;86.00
6792;DHT22;3433;48.730;9.108;2023-03-01T12:28:27;12.10;86.60
6792;DHT22;3433;48.730;9.108;2023-03-01T12:31:46;12.10;85.20
6792;DHT22;3433;48.730;9.108;2023-03-01T12:38:19;12.30;85.20
6792;DHT22;3433;48.730;9.108;2023-03-01T12:41:31;12.60;85.80
6792;DHT22;3433;48.730;9.108;2023-03-01T12:44:39;12.80;84.70
6792;DHT22;3433;48.730;9.108;2023-03-01T12:47:49;12.90;87.50
6792;DHT22;3433;48.730;9.108;2023-03-01T12:50:46;13.20;85.70
6792;DHT22;3433;48.730;9.108;2023-03-01T12:53:36;13.40;87.90
6792;DHT22;3433;48.730;9.108;2023-03-01T12:56:28;13.80;86.80
6792;DHT22;3433;48.730;9.108;2023-03-01T12:59:20;14.00;86.20
6792;DHT22;3433;48.730;9.108;2023-03-01T13:02:15;13.50;83.60
6792;DHT22;3433;48.730;9.108;2023-03-01T13:05:24;14.00;85.50
6792;DHT22;3433;48.730;9.108;2023-03-01T13:08:16;14.20;85.40
6792;DHT22;3433;48.730;9.108;2023-03-01T13:11:15;14.70;85.00
6792;DHT22;3433;48.730;9.108;2023-03-01T13:17:43;15.30;83.20
6792;DHT22;3433;48.730;9.108;2023-03-01T13:20:34;15.40;82.80
6792;DHT22;3433;48.730;9.108;2023-03-01T13:23:35;14.90;81.50
6792;DHT22;3433;48.730;9.108;2023-03-01T13:26:23;15.00;82.10
6792;DHT22;3433;48.730;9.108;2023-03-01T13:29:26;15.40;82.70
6792;DHT22;3433;48.730;9.108;2023-03-01T13:32:20;15.40;82.50
6792;DHT22;3433;48.730;9.108;2023-03-01T13:38:44;15.60;81.30
6792;DHT22;3433;48.730;9.108;2023-03-01T13:41:50;15.80;83.00
6792;DHT22;3433;48.730;9.108;2023-03-01T13:44:38;15.90;83.50
6792;DHT22;3433;48.730;9.108;2023-03-01T13:47:27;15.80;81.20
6792;DHT22;3433;48.730;9.108;2023-03-01T13:50:20;15.50;78.90
6792;DHT22;3433;48.730;9.108;2023-03-01T13:53:15;15.00;76.80
6792;DHT22;3433;48.730;9.108;2023-03-01T13:56:10;14.80;76.10
6792;DHT22;3433;48.730;9.108;2023-03-01T13:59:01;14.50;76.20
6792;DHT22;3433;48.730;9.108;2023-03-01T14:01:52;14.50;73.60
6792;DHT22;3433;48.730;9.108;2023-03-01T14:04:40;14.30;77.90
6792;DHT22;3433;48.730;9.108;2023-03-01T14:07:28;14.40;77.10
6792;DHT22;3433;48.730;9.108;2023-03-01T14:10:16;14.30;77.60
6792;DHT22;3433;48.730;9.108;2023-03-01T14:13:17;14.50;78.60
6792;DHT22;3433;48.730;9.108;2023-03-01T14:16:18;14.30;76.70
6792;DHT22;3433;48.730;9.108;2023-03-01T14:19:15;14.50;77.40
6792;DHT22;3433;48.730;9.108;2023-03-01T14:22:18;14.30;75.10
6792;DHT22;3433;48.730;9.108;2023-03-01T14:25:21;14.00;76.20
6792;DHT22;3433;48.730;9.108;2023-03-01T14:28:16;13.90;76.40
6792;DHT22;3433;48.730;9.108;2023-03-01T14:31:29;13.70;76.40
6792;DHT22;3433;48.730;9.108;2023-03-01T14:34:20;13.70;77.50
6792;DHT22;3433;48.730;9.108;2023-03-01T14:37:16;13.50;75.70
6792;DHT22;3433;48.730;9.108;2023-03-01T14:40:18;13.30;76.60
6792;DHT22;3433;48.730;9.108;2023-03-01T14:43:10;13.20;76.40
6792;DHT22;3433;48.730;9.108;2023-03-01T14:45:59;13.00;76.50
6792;DHT22;3433;48.730;9.108;2023-03-01T14:48:49;13.00;77.80
6792;DHT22;3433;48.730;9.108;2023-03-01T14:51:37;13.00;78.10
6792;DHT22;3433;48.730;9.108;2023-03-01T14:54:27;12.70;76.10
6792;DHT22;3433;48.730;9.108;2023-03-01T14:57:18;12.60;75.60
6792;DHT22;3433;48.730;9.108;2023-03-01T15:00:08;12.40;77.80
6792;DHT22;3433;48.730;9.108;2023-03-01T15:03:00;12.10;76.00
6792;DHT22;3433;48.730;9.108;2023-03-01T15:05:48;12.30;78.20
6792;DHT22;3433;48.730;9.108;2023-03-01T15:08:37;12.30;78.20
6792;DHT22;3433;48.730;9.108;2023-03-01T15:11:29;12.30;78.20
6792;DHT22;3433;48.730;9.108;2023-03-01T15:14:27;12.30;76.80
6792;DHT22;3433;48.730;9.108;2023-03-01T15:17:21;12.30;77.20
6792;DHT22;3433;48.730;9.108;2023-03-01T15:20:18;12.10;77.80
6792;DHT22;3433;48.730;9.108;2023-03-01T15:23:20;12.00;76.30
6792;DHT22;3433;48.730;9.108;2023-03-01T15:26:25;11.70;77.60
6792;DHT22;3433;48.730;9.108;2023-03-01T15:29:18;11.50;77.80
6792;DHT22;3433;48.730;9.108;2023-03-01T15:32:22;11.60;78.00
6792;DHT22;3433;48.730;9.108;2023-03-01T15:35:37;11.60;78.20
6792;DHT22;3433;48.730;9.108;2023-03-01T15:38:30;11.40;77.40
6792;DHT22;3433;48.730;9.108;2023-03-01T15:41:23;11.30;78.00
6792;DHT22;3433;48.730;9.108;2023-03-01T15:44:16;11.20;78.20
6792;DHT22;3433;48.730;9.108;2023-03-01T15:47:22;11.00;79.10
6792;DHT22;3433;48.730;9.108;2023-03-01T15:50:16;11.00;77.90
6792;DHT22;3433;48.730;9.108;2023-03-01T15:53:09;10.70;77.90
6792;DHT22;3433;48.730;9.108;2023-03-01T15:55:57;10.50;78.70
6792;DHT22;3433;48.730;9.108;2023-03-01T15:58:44;10.30;78.60
6792;DHT22;3433;48.730;9.108;2023-03-01T16:01:32;10.30;79.10
6792;DHT22;3433;48.730;9.108;2023-03-01T16:04:20;10.10;78.60
6792;DHT22;3433;48.730;9.108;2023-03-01T16:07:09;9.90;80.30
6792;DHT22;3433;48.730;9.108;2023-03-01T16:09:58;9.80;80.70
6792;DHT22;3433;48.730;9.108;2023-03-01T16:12:45;9.60;80.30
6792;DHT22;3433;48.730;9.108;2023-03-01T16:15:33;9.50;80.30
6792;DHT22;3433;48.730;9.108;2023-03-01T16:18:21;9.40;80.60
6792;DHT22;3433;48.730;9.108;2023-03-01T16:21:16;9.20;80.90
6792;DHT22;3433;48.730;9.108;2023-03-01T16:24:06;9.00;79.80
6792;DHT22;3433;48.730;9.108;2023-03-01T16:26:55;9.00;80.40
6792;DHT22;3433;48.730;9.108;2023-03-01T16:29:42;8.90;80.60
6792;DHT22;3433;48.730;9.108;2023-03-01T16:32:30;8.60;80.60
6792;DHT22;3433;48.730;9.108;2023-03-01T16:35:19;8.50;80.30
6792;DHT22;3433;48.730;9.108;2023-03-01T16:38:07;8.60;81.00
6792;DHT22;3433;48.730;9.108;2023-03-01T16:40:54;8.50;81.30
6792;DHT22;3433;48.730;9.108;2023-03-01T16:43:43;8.40;80.80
6792;DHT22;3433;48.730;9.108;2023-03-01T16:46:32;8.40;81.40
6792;DHT22;3433;48.730;9.108;2023-03-01T16:49:19;8.40;81.20
6792;DHT22;3433;48.730;9.108;2023-03-01T16:52:06;8.30;82.00
6792;DHT22;3433;48.730;9.108;2023-03-01T16:54:53;8.30;81.40
6792;DHT22;3433;48.730;9.108;2023-03-01T16:57:40;8.20;81.70
6792;DHT22;3433;48.730;9.108;2023-03-01T17:00:29;8.30;81.70
6792;DHT22;3433;48.730;9.108;2023-03-01T17:03:16;8.10;81.60
6792;DHT22;3433;48.730;9.108;2023-03-01T17:06:05;8.10;81.80
6792;DHT22;3433;48.730;9.108;2023-03-01T17:08:52;7.90;81.80
6792;DHT22;3433;48.730;9.108;2023-03-01T17:11:40;7.90;82.00
6792;DHT22;3433;48.730;9.108;2023-03-01T17:14:27;7.90;82.20
6792;DHT22;3433;48.730;9.108;2023-03-01T17:17:16;7.90;82.40
6792;DHT22;3433;48.730;9.108;2023-03-01T17:20:04;7.90;82.60
6792;DHT22;3433;48.730;9.108;2023-03-01T17:22:51;7.80;82.60
6792;DHT22;3433;48.730;9.108;2023-03-01T17:25:41;7.80;82.70
6792;DHT22;3433;48.730;9.108;2023-03-01T17:28:31;7.70;82.50
6792;DHT22;3433;48.730;9.108;2023-03-01T17:31:20;7.70;82.70
6792;DHT22;3433;48.730;9.108;2023-03-01T17:34:08;7.60;82.70
6792;DHT22;3433;48.730;9.108;2023-03-01T17:36:56;7.60;82.80
6792;DHT22;3433;48.730;9.108;2023-03-01T17:39:43;7.50;82.80
6792;DHT22;3433;48.730;9.108;2023-03-01T17:42:30;7.50;82.90
6792;DHT22;3433;48.730;9.108;2023-03-01T17:45:17;7.40;82.90
6792;DHT22;3433;48.730;9.108;2023-03-01T17:48:05;7.40;82.90
6792;DHT22;3433;48.730;9.108;2023-03-01T17:50:53;7.40;83.10
6792;DHT22;3433;48.730;9.108;2023-03-01T17:53:41;7.30;83.00
6792;DHT22;3433;48.730;9.108;2023-03-01T17:56:28;7.30;83.10
6792;DHT22;3433;48.730;9.108;2023-03-01T17:59:29;7.30;83.30
6792;DHT22;3433;48.730;9.108;2023-03-01T18:02:19;7.20;83.30
6792;DHT22;3433;48.730;9.108;2023-03-01T18:05:13;7.20;83.50
6792;DHT22;3433;48.730;9.108;2023-03-01T18:08:00;7.10;83.30
6792;DHT22;3433;48.730;9.108;2023-03-01T18:10:47;7.10;83.40
6792;DHT22;3433;48.730;9.108;2023-03-01T18:13:35;7.10;83.40
6792;DHT22;3433;48.730;9.108;2023-03-01T18:16:23;7.00;83.30
6792;DHT22;3433;48.730;9.108;2023-03-01T18:19:10;7.00;83.30
6792;DHT22;3433;48.730;9.108;2023-03-01T18:21:59;7.00;83.40
6792;DHT22;3433;48.730;9.108;2023-03-01T18:24:46;6.90;83.30
6792;DHT22;3433;48.730;9.108;2023-03-01T18:27:33;6.70;83.50
6792;DHT22;3433;48.730;9.108;2023-03-01T18:30:21;6.70;83.40
6792;DHT22;3433;48.730;9.108;2023-03-01T18:33:09;6.60;83.40
6792;DHT22;3433;48.730;9.108;2023-03-01T18:35:56;6.60;83.40
6792;DHT22;3433;48.730;9.108;2023-03-01T18:38:45;6.70;83.70
6792;DHT22;3433;48.730;9.108;2023-03-01T18:41:33;6.50;83.30
6792;DHT22;3433;48.730;9.108;2023-03-01T18:44:20;6.50;83.40
6792;DHT22;3433;48.730;9.108;2023-03-01T18:47:08;6.40;83.50
6792;DHT22;3433;48.730;9.108;2023-03-01T18:49:55;6.40;83.50
6792;DHT22;3433;48.730;9.108;2023-03-01T18:52:42;6.40;83.60
6792;DHT22;3433;48.730;9.108;2023-03-01T18:55:34;6.30;83.50
6792;DHT22;3433;48.730;9.108;2023-03-01T18:58:22;6.30;83.70
6792;DHT22;3433;48.730;9.108;2023-03-01T19:01:13;6.30;83.60